Brockway, California
Current Conditions -  °F | °C
As of 9:50 AM on Friday 28 Nov 2014 (Local Time) from KTRK Reporting Station
Few Clouds Few Clouds  
Wind Chill: 55°   Ceiling: Unl
Heat Index: 55°   Visibility: 10mi
Dew Point: -9°   Wind: 18mph
Humidity: 7%   Direction: 220°SW
Pressure: 30.07"   Gusts: 31mph
Location:  39.278°N, 120.051°W
Report Text: KTRK 281750Z 22016G27KT 10SM FEW140 13/M23 A3007 RMK NOSPECI
Loading
Personal Weather Stations






























Interactive Weather Map New forecast layout! Learn more

10-Day Weather Forecast

Advertisements
Track Severe Weather on mobile